sensor_id;sensor_type;location;lat;lon;timestamp;P1;durP1;ratioP1;P2;durP2;ratioP2
10882;SDS011;5494;51.796;10.952;2023-07-29T00:00:31;2.00;;;1.43;;
10882;SDS011;5494;51.796;10.952;2023-07-29T00:02:59;3.20;;;1.57;;
10882;SDS011;5494;51.796;10.952;2023-07-29T00:05:28;1.87;;;1.40;;
10882;SDS011;5494;51.796;10.952;2023-07-29T00:07:57;1.63;;;1.53;;
10882;SDS011;5494;51.796;10.952;2023-07-29T00:10:26;2.20;;;1.43;;
10882;SDS011;5494;51.796;10.952;2023-07-29T00:12:54;2.03;;;1.37;;
10882;SDS011;5494;51.796;10.952;2023-07-29T00:15:22;1.63;;;1.53;;
10882;SDS011;5494;51.796;10.952;2023-07-29T00:17:50;2.70;;;1.40;;
10882;SDS011;5494;51.796;10.952;2023-07-29T00:20:18;1.53;;;1.43;;
10882;SDS011;5494;51.796;10.952;2023-07-29T00:22:47;2.40;;;1.50;;
10882;SDS011;5494;51.796;10.952;2023-07-29T00:25:17;1.47;;;1.37;;
10882;SDS011;5494;51.796;10.952;2023-07-29T00:27:45;1.73;;;1.30;;
10882;SDS011;5494;51.796;10.952;2023-07-29T00:30:13;1.93;;;1.53;;
10882;SDS011;5494;51.796;10.952;2023-07-29T00:32:41;1.80;;;1.70;;
10882;SDS011;5494;51.796;10.952;2023-07-29T00:35:11;1.60;;;1.50;;
10882;SDS011;5494;51.796;10.952;2023-07-29T00:37:39;3.30;;;1.80;;
10882;SDS011;5494;51.796;10.952;2023-07-29T00:40:09;1.77;;;1.30;;
10882;SDS011;5494;51.796;10.952;2023-07-29T00:42:48;1.93;;;1.37;;
10882;SDS011;5494;51.796;10.952;2023-07-29T00:45:17;1.67;;;1.57;;
10882;SDS011;5494;51.796;10.952;2023-07-29T00:47:46;2.63;;;1.60;;
10882;SDS011;5494;51.796;10.952;2023-07-29T00:50:16;1.67;;;1.57;;
10882;SDS011;5494;51.796;10.952;2023-07-29T00:52:44;1.53;;;1.40;;
10882;SDS011;5494;51.796;10.952;2023-07-29T00:55:14;1.60;;;1.50;;
10882;SDS011;5494;51.796;10.952;2023-07-29T00:57:43;1.67;;;1.57;;
10882;SDS011;5494;51.796;10.952;2023-07-29T01:00:16;1.60;;;1.50;;
10882;SDS011;5494;51.796;10.952;2023-07-29T01:02:44;1.83;;;1.50;;
10882;SDS011;5494;51.796;10.952;2023-07-29T01:05:13;1.80;;;1.70;;
10882;SDS011;5494;51.796;10.952;2023-07-29T01:07:44;2.13;;;1.60;;
10882;SDS011;5494;51.796;10.952;2023-07-29T01:10:33;2.27;;;1.70;;
10882;SDS011;5494;51.796;10.952;2023-07-29T01:13:13;2.37;;;1.50;;
10882;SDS011;5494;51.796;10.952;2023-07-29T01:15:54;2.50;;;1.67;;
10882;SDS011;5494;51.796;10.952;2023-07-29T01:18:29;1.50;;;1.40;;
10882;SDS011;5494;51.796;10.952;2023-07-29T01:21:02;1.70;;;1.60;;
10882;SDS011;5494;51.796;10.952;2023-07-29T01:23:35;2.27;;;1.47;;
10882;SDS011;5494;51.796;10.952;2023-07-29T01:26:04;1.57;;;1.47;;
10882;SDS011;5494;51.796;10.952;2023-07-29T01:28:32;1.80;;;1.60;;
10882;SDS011;5494;51.796;10.952;2023-07-29T01:31:01;1.80;;;1.70;;
10882;SDS011;5494;51.796;10.952;2023-07-29T01:33:42;1.60;;;1.40;;
10882;SDS011;5494;51.796;10.952;2023-07-29T01:36:21;1.90;;;1.57;;
10882;SDS011;5494;51.796;10.952;2023-07-29T01:38:56;2.43;;;2.23;;
10882;SDS011;5494;51.796;10.952;2023-07-29T01:41:26;2.37;;;1.70;;
10882;SDS011;5494;51.796;10.952;2023-07-29T01:43:55;2.17;;;1.40;;
10882;SDS011;5494;51.796;10.952;2023-07-29T01:46:25;1.93;;;1.83;;
10882;SDS011;5494;51.796;10.952;2023-07-29T01:48:53;3.23;;;1.93;;
10882;SDS011;5494;51.796;10.952;2023-07-29T01:51:21;2.20;;;1.80;;
10882;SDS011;5494;51.796;10.952;2023-07-29T01:53:49;3.20;;;2.00;;
10882;SDS011;5494;51.796;10.952;2023-07-29T01:56:18;1.63;;;1.53;;
10882;SDS011;5494;51.796;10.952;2023-07-29T01:58:53;1.90;;;1.70;;
10882;SDS011;5494;51.796;10.952;2023-07-29T02:01:21;2.17;;;1.67;;
10882;SDS011;5494;51.796;10.952;2023-07-29T02:03:49;1.53;;;1.37;;
10882;SDS011;5494;51.796;10.952;2023-07-29T02:06:22;1.60;;;1.50;;
10882;SDS011;5494;51.796;10.952;2023-07-29T02:08:50;2.13;;;1.60;;
10882;SDS011;5494;51.796;10.952;2023-07-29T02:11:20;2.57;;;1.80;;
10882;SDS011;5494;51.796;10.952;2023-07-29T02:13:54;2.20;;;1.73;;
10882;SDS011;5494;51.796;10.952;2023-07-29T02:16:23;2.77;;;1.60;;
10882;SDS011;5494;51.796;10.952;2023-07-29T02:18:51;1.97;;;1.70;;
10882;SDS011;5494;51.796;10.952;2023-07-29T02:21:22;3.07;;;1.77;;
10882;SDS011;5494;51.796;10.952;2023-07-29T02:23:50;1.73;;;1.63;;
10882;SDS011;5494;51.796;10.952;2023-07-29T02:26:19;1.67;;;1.57;;
10882;SDS011;5494;51.796;10.952;2023-07-29T02:28:47;2.13;;;1.50;;
10882;SDS011;5494;51.796;10.952;2023-07-29T02:31:16;1.70;;;1.60;;
10882;SDS011;5494;51.796;10.952;2023-07-29T02:33:47;3.17;;;1.67;;
10882;SDS011;5494;51.796;10.952;2023-07-29T02:36:16;3.73;;;1.93;;
10882;SDS011;5494;51.796;10.952;2023-07-29T02:38:45;2.57;;;1.80;;
10882;SDS011;5494;51.796;10.952;2023-07-29T02:41:13;1.70;;;1.60;;
10882;SDS011;5494;51.796;10.952;2023-07-29T02:43:47;2.40;;;1.87;;
10882;SDS011;5494;51.796;10.952;2023-07-29T02:46:17;1.90;;;1.80;;
10882;SDS011;5494;51.796;10.952;2023-07-29T02:48:45;2.23;;;1.80;;
10882;SDS011;5494;51.796;10.952;2023-07-29T02:51:14;3.00;;;1.93;;
10882;SDS011;5494;51.796;10.952;2023-07-29T02:53:42;1.87;;;1.70;;
10882;SDS011;5494;51.796;10.952;2023-07-29T02:56:10;2.10;;;1.87;;
10882;SDS011;5494;51.796;10.952;2023-07-29T02:58:38;2.07;;;1.80;;
10882;SDS011;5494;51.796;10.952;2023-07-29T03:01:08;2.10;;;1.90;;
10882;SDS011;5494;51.796;10.952;2023-07-29T03:03:37;2.87;;;1.80;;
10882;SDS011;5494;51.796;10.952;2023-07-29T03:06:05;4.80;;;2.30;;
10882;SDS011;5494;51.796;10.952;2023-07-29T03:08:35;3.23;;;2.33;;
10882;SDS011;5494;51.796;10.952;2023-07-29T03:11:05;5.10;;;2.23;;
10882;SDS011;5494;51.796;10.952;2023-07-29T03:13:34;1.90;;;1.80;;
10882;SDS011;5494;51.796;10.952;2023-07-29T03:16:06;2.63;;;2.27;;
10882;SDS011;5494;51.796;10.952;2023-07-29T03:18:38;2.20;;;2.00;;
10882;SDS011;5494;51.796;10.952;2023-07-29T03:21:07;2.93;;;2.17;;
10882;SDS011;5494;51.796;10.952;2023-07-29T03:23:38;2.00;;;1.77;;
10882;SDS011;5494;51.796;10.952;2023-07-29T03:26:06;1.97;;;1.77;;
10882;SDS011;5494;51.796;10.952;2023-07-29T03:28:38;2.43;;;2.23;;
10882;SDS011;5494;51.796;10.952;2023-07-29T03:31:10;2.90;;;2.10;;
10882;SDS011;5494;51.796;10.952;2023-07-29T03:33:38;3.13;;;2.30;;
10882;SDS011;5494;51.796;10.952;2023-07-29T03:36:06;2.77;;;1.93;;
10882;SDS011;5494;51.796;10.952;2023-07-29T03:38:35;2.27;;;2.07;;
10882;SDS011;5494;51.796;10.952;2023-07-29T03:41:07;2.90;;;2.33;;
10882;SDS011;5494;51.796;10.952;2023-07-29T03:43:35;5.33;;;2.30;;
10882;SDS011;5494;51.796;10.952;2023-07-29T03:46:04;2.50;;;1.83;;
10882;SDS011;5494;51.796;10.952;2023-07-29T03:48:38;2.70;;;2.00;;
10882;SDS011;5494;51.796;10.952;2023-07-29T03:51:06;2.03;;;1.80;;
10882;SDS011;5494;51.796;10.952;2023-07-29T03:53:35;2.10;;;1.90;;
10882;SDS011;5494;51.796;10.952;2023-07-29T03:56:03;3.13;;;1.63;;
10882;SDS011;5494;51.796;10.952;2023-07-29T03:58:31;1.87;;;1.77;;
10882;SDS011;5494;51.796;10.952;2023-07-29T04:00:59;2.63;;;1.70;;
10882;SDS011;5494;51.796;10.952;2023-07-29T04:03:27;2.23;;;1.87;;
10882;SDS011;5494;51.796;10.952;2023-07-29T04:05:57;2.20;;;1.87;;
10882;SDS011;5494;51.796;10.952;2023-07-29T04:08:25;2.10;;;2.00;;
10882;SDS011;5494;51.796;10.952;2023-07-29T04:10:54;2.63;;;1.70;;
10882;SDS011;5494;51.796;10.952;2023-07-29T04:13:22;2.33;;;1.80;;
10882;SDS011;5494;51.796;10.952;2023-07-29T04:15:50;2.30;;;2.10;;
10882;SDS011;5494;51.796;10.952;2023-07-29T04:18:19;3.20;;;1.87;;
10882;SDS011;5494;51.796;10.952;2023-07-29T04:20:47;2.20;;;2.00;;
10882;SDS011;5494;51.796;10.952;2023-07-29T04:23:17;2.13;;;2.00;;
10882;SDS011;5494;51.796;10.952;2023-07-29T04:25:45;2.90;;;2.30;;
10882;SDS011;5494;51.796;10.952;2023-07-29T04:28:13;2.97;;;2.07;;
10882;SDS011;5494;51.796;10.952;2023-07-29T04:30:41;2.27;;;1.80;;
10882;SDS011;5494;51.796;10.952;2023-07-29T04:33:09;2.00;;;1.80;;
10882;SDS011;5494;51.796;10.952;2023-07-29T04:35:37;3.67;;;2.00;;
10882;SDS011;5494;51.796;10.952;2023-07-29T04:38:06;2.20;;;2.00;;
10882;SDS011;5494;51.796;10.952;2023-07-29T04:40:35;2.43;;;2.23;;
10882;SDS011;5494;51.796;10.952;2023-07-29T04:43:03;1.97;;;1.87;;
10882;SDS011;5494;51.796;10.952;2023-07-29T04:45:31;2.80;;;2.07;;
10882;SDS011;5494;51.796;10.952;2023-07-29T04:47:59;2.47;;;1.83;;
10882;SDS011;5494;51.796;10.952;2023-07-29T04:50:27;3.13;;;1.87;;
10882;SDS011;5494;51.796;10.952;2023-07-29T04:52:56;2.73;;;1.57;;
10882;SDS011;5494;51.796;10.952;2023-07-29T04:55:24;3.67;;;2.07;;
10882;SDS011;5494;51.796;10.952;2023-07-29T04:57:54;2.83;;;1.63;;
10882;SDS011;5494;51.796;10.952;2023-07-29T05:00:22;1.47;;;1.33;;
10882;SDS011;5494;51.796;10.952;2023-07-29T05:02:51;2.17;;;1.37;;
10882;SDS011;5494;51.796;10.952;2023-07-29T05:05:19;1.77;;;1.60;;
10882;SDS011;5494;51.796;10.952;2023-07-29T05:07:48;2.10;;;1.80;;
10882;SDS011;5494;51.796;10.952;2023-07-29T05:10:16;1.50;;;1.40;;
10882;SDS011;5494;51.796;10.952;2023-07-29T05:12:44;2.27;;;1.33;;
10882;SDS011;5494;51.796;10.952;2023-07-29T05:15:14;2.23;;;1.40;;
10882;SDS011;5494;51.796;10.952;2023-07-29T05:17:42;1.57;;;1.47;;
10882;SDS011;5494;51.796;10.952;2023-07-29T05:20:11;1.30;;;1.20;;
10882;SDS011;5494;51.796;10.952;2023-07-29T05:22:39;1.50;;;1.40;;
10882;SDS011;5494;51.796;10.952;2023-07-29T05:25:07;1.60;;;1.40;;
10882;SDS011;5494;51.796;10.952;2023-07-29T05:27:36;1.40;;;1.30;;
10882;SDS011;5494;51.796;10.952;2023-07-29T05:30:05;1.57;;;1.27;;
10882;SDS011;5494;51.796;10.952;2023-07-29T05:32:36;2.13;;;1.50;;
10882;SDS011;5494;51.796;10.952;2023-07-29T05:35:05;1.57;;;1.20;;
10882;SDS011;5494;51.796;10.952;2023-07-29T05:37:35;2.20;;;1.23;;
10882;SDS011;5494;51.796;10.952;2023-07-29T05:40:06;2.87;;;1.40;;
10882;SDS011;5494;51.796;10.952;2023-07-29T05:42:37;1.77;;;1.27;;
10882;SDS011;5494;51.796;10.952;2023-07-29T05:45:05;2.13;;;1.33;;
10882;SDS011;5494;51.796;10.952;2023-07-29T05:47:36;1.77;;;1.30;;
10882;SDS011;5494;51.796;10.952;2023-07-29T05:50:05;1.73;;;1.30;;
10882;SDS011;5494;51.796;10.952;2023-07-29T05:52:34;1.50;;;1.40;;
10882;SDS011;5494;51.796;10.952;2023-07-29T05:55:09;1.50;;;1.27;;
10882;SDS011;5494;51.796;10.952;2023-07-29T05:57:37;2.20;;;1.70;;
10882;SDS011;5494;51.796;10.952;2023-07-29T06:00:09;2.60;;;1.50;;
10882;SDS011;5494;51.796;10.952;2023-07-29T06:02:40;1.70;;;1.17;;
10882;SDS011;5494;51.796;10.952;2023-07-29T06:05:13;1.67;;;1.53;;
10882;SDS011;5494;51.796;10.952;2023-07-29T06:07:41;1.93;;;1.47;;
10882;SDS011;5494;51.796;10.952;2023-07-29T06:10:11;1.67;;;1.53;;
10882;SDS011;5494;51.796;10.952;2023-07-29T06:12:44;1.53;;;1.43;;
10882;SDS011;5494;51.796;10.952;2023-07-29T06:15:12;1.77;;;1.60;;
10882;SDS011;5494;51.796;10.952;2023-07-29T06:17:42;1.60;;;1.50;;
10882;SDS011;5494;51.796;10.952;2023-07-29T06:20:10;1.53;;;1.43;;
10882;SDS011;5494;51.796;10.952;2023-07-29T06:22:39;3.43;;;1.90;;
10882;SDS011;5494;51.796;10.952;2023-07-29T06:25:08;3.70;;;2.33;;
10882;SDS011;5494;51.796;10.952;2023-07-29T06:27:37;2.43;;;1.87;;
10882;SDS011;5494;51.796;10.952;2023-07-29T06:30:06;1.50;;;1.40;;
10882;SDS011;5494;51.796;10.952;2023-07-29T06:32:35;2.03;;;1.40;;
10882;SDS011;5494;51.796;10.952;2023-07-29T06:35:05;2.00;;;1.60;;
10882;SDS011;5494;51.796;10.952;2023-07-29T06:37:34;1.60;;;1.50;;
10882;SDS011;5494;51.796;10.952;2023-07-29T06:40:02;3.13;;;1.27;;
10882;SDS011;5494;51.796;10.952;2023-07-29T06:42:31;1.53;;;1.43;;
10882;SDS011;5494;51.796;10.952;2023-07-29T06:44:59;1.40;;;1.30;;
10882;SDS011;5494;51.796;10.952;2023-07-29T06:47:28;2.50;;;1.10;;
10882;SDS011;5494;51.796;10.952;2023-07-29T06:49:56;1.40;;;1.10;;
10882;SDS011;5494;51.796;10.952;2023-07-29T06:52:25;1.90;;;1.10;;
10882;SDS011;5494;51.796;10.952;2023-07-29T06:54:53;0.70;;;0.70;;
10882;SDS011;5494;51.796;10.952;2023-07-29T06:57:21;0.77;;;0.73;;
10882;SDS011;5494;51.796;10.952;2023-07-29T06:59:49;1.30;;;1.07;;
10882;SDS011;5494;51.796;10.952;2023-07-29T07:02:17;1.57;;;0.80;;
10882;SDS011;5494;51.796;10.952;2023-07-29T07:04:45;1.17;;;0.90;;
10882;SDS011;5494;51.796;10.952;2023-07-29T07:07:13;0.97;;;0.80;;
10882;SDS011;5494;51.796;10.952;2023-07-29T07:09:44;0.80;;;0.80;;
10882;SDS011;5494;51.796;10.952;2023-07-29T07:12:12;2.50;;;0.80;;
10882;SDS011;5494;51.796;10.952;2023-07-29T07:14:40;0.80;;;0.80;;
10882;SDS011;5494;51.796;10.952;2023-07-29T07:17:08;0.87;;;0.77;;
10882;SDS011;5494;51.796;10.952;2023-07-29T07:19:39;0.93;;;0.93;;
10882;SDS011;5494;51.796;10.952;2023-07-29T07:22:07;0.97;;;0.97;;
10882;SDS011;5494;51.796;10.952;2023-07-29T07:24:35;1.57;;;1.07;;
10882;SDS011;5494;51.796;10.952;2023-07-29T07:27:05;1.63;;;0.90;;
10882;SDS011;5494;51.796;10.952;2023-07-29T07:29:33;1.30;;;1.20;;
10882;SDS011;5494;51.796;10.952;2023-07-29T07:32:01;1.97;;;1.20;;
10882;SDS011;5494;51.796;10.952;2023-07-29T07:34:30;1.10;;;1.10;;
10882;SDS011;5494;51.796;10.952;2023-07-29T07:36:59;1.40;;;1.30;;
10882;SDS011;5494;51.796;10.952;2023-07-29T07:39:31;1.40;;;1.30;;
10882;SDS011;5494;51.796;10.952;2023-07-29T07:41:59;1.83;;;1.30;;
10882;SDS011;5494;51.796;10.952;2023-07-29T07:44:28;1.83;;;1.50;;
10882;SDS011;5494;51.796;10.952;2023-07-29T07:46:56;1.50;;;1.33;;
10882;SDS011;5494;51.796;10.952;2023-07-29T07:49:26;1.83;;;1.37;;
10882;SDS011;5494;51.796;10.952;2023-07-29T07:51:54;2.33;;;1.57;;
10882;SDS011;5494;51.796;10.952;2023-07-29T07:54:22;1.80;;;1.50;;
10882;SDS011;5494;51.796;10.952;2023-07-29T07:56:50;2.47;;;1.60;;
10882;SDS011;5494;51.796;10.952;2023-07-29T07:59:18;1.93;;;1.80;;
10882;SDS011;5494;51.796;10.952;2023-07-29T08:01:47;2.10;;;1.60;;
10882;SDS011;5494;51.796;10.952;2023-07-29T08:04:15;1.73;;;1.60;;
10882;SDS011;5494;51.796;10.952;2023-07-29T08:06:43;2.07;;;1.60;;
10882;SDS011;5494;51.796;10.952;2023-07-29T08:09:11;2.10;;;1.77;;
10882;SDS011;5494;51.796;10.952;2023-07-29T08:11:39;2.93;;;1.50;;
10882;SDS011;5494;51.796;10.952;2023-07-29T08:14:08;2.40;;;1.53;;
10882;SDS011;5494;51.796;10.952;2023-07-29T08:16:36;1.90;;;1.80;;
10882;SDS011;5494;51.796;10.952;2023-07-29T08:19:05;1.60;;;1.50;;
10882;SDS011;5494;51.796;10.952;2023-07-29T08:21:36;2.30;;;1.60;;
10882;SDS011;5494;51.796;10.952;2023-07-29T08:24:04;1.60;;;1.50;;
10882;SDS011;5494;51.796;10.952;2023-07-29T08:26:33;2.03;;;1.90;;
10882;SDS011;5494;51.796;10.952;2023-07-29T08:29:01;2.00;;;1.47;;
10882;SDS011;5494;51.796;10.952;2023-07-29T08:31:29;2.20;;;1.67;;
10882;SDS011;5494;51.796;10.952;2023-07-29T08:33:59;1.80;;;1.30;;
10882;SDS011;5494;51.796;10.952;2023-07-29T08:36:29;2.90;;;1.60;;
10882;SDS011;5494;51.796;10.952;2023-07-29T08:38:58;1.93;;;1.00;;
10882;SDS011;5494;51.796;10.952;2023-07-29T08:41:26;1.20;;;1.03;;
10882;SDS011;5494;51.796;10.952;2023-07-29T08:44:02;1.63;;;1.07;;
10882;SDS011;5494;51.796;10.952;2023-07-29T08:46:39;2.07;;;1.00;;
10882;SDS011;5494;51.796;10.952;2023-07-29T08:49:07;1.97;;;1.40;;
10882;SDS011;5494;51.796;10.952;2023-07-29T08:51:42;1.00;;;0.80;;
10882;SDS011;5494;51.796;10.952;2023-07-29T08:54:13;1.80;;;1.10;;
10882;SDS011;5494;51.796;10.952;2023-07-29T08:56:42;2.60;;;1.10;;
10882;SDS011;5494;51.796;10.952;2023-07-29T08:59:11;1.23;;;0.90;;
10882;SDS011;5494;51.796;10.952;2023-07-29T09:01:42;2.40;;;1.00;;
10882;SDS011;5494;51.796;10.952;2023-07-29T09:04:11;2.80;;;1.27;;
10882;SDS011;5494;51.796;10.952;2023-07-29T09:06:39;2.10;;;1.00;;
10882;SDS011;5494;51.796;10.952;2023-07-29T09:09:11;2.07;;;0.97;;
10882;SDS011;5494;51.796;10.952;2023-07-29T09:11:40;1.30;;;1.10;;
10882;SDS011;5494;51.796;10.952;2023-07-29T09:14:08;2.00;;;1.40;;
10882;SDS011;5494;51.796;10.952;2023-07-29T09:16:37;1.63;;;1.37;;
10882;SDS011;5494;51.796;10.952;2023-07-29T09:19:06;1.63;;;1.47;;
10882;SDS011;5494;51.796;10.952;2023-07-29T09:21:34;1.83;;;1.50;;
10882;SDS011;5494;51.796;10.952;2023-07-29T09:24:08;1.90;;;1.57;;
10882;SDS011;5494;51.796;10.952;2023-07-29T09:26:37;2.13;;;1.63;;
10882;SDS011;5494;51.796;10.952;2023-07-29T09:29:15;2.03;;;1.90;;
10882;SDS011;5494;51.796;10.952;2023-07-29T09:31:49;2.73;;;1.80;;
10882;SDS011;5494;51.796;10.952;2023-07-29T09:34:17;3.27;;;1.60;;
10882;SDS011;5494;51.796;10.952;2023-07-29T09:36:45;1.60;;;1.50;;
10882;SDS011;5494;51.796;10.952;2023-07-29T09:39:15;1.73;;;1.63;;
10882;SDS011;5494;51.796;10.952;2023-07-29T09:41:47;2.53;;;2.33;;
10882;SDS011;5494;51.796;10.952;2023-07-29T09:44:16;1.80;;;1.70;;
10882;SDS011;5494;51.796;10.952;2023-07-29T09:46:45;1.70;;;1.60;;
10882;SDS011;5494;51.796;10.952;2023-07-29T09:49:14;1.57;;;1.47;;
10882;SDS011;5494;51.796;10.952;2023-07-29T09:51:42;1.50;;;1.40;;
10882;SDS011;5494;51.796;10.952;2023-07-29T09:54:10;1.70;;;1.60;;
10882;SDS011;5494;51.796;10.952;2023-07-29T09:56:43;1.60;;;1.27;;
10882;SDS011;5494;51.796;10.952;2023-07-29T09:59:13;3.57;;;1.50;;
10882;SDS011;5494;51.796;10.952;2023-07-29T10:01:46;1.27;;;1.10;;
10882;SDS011;5494;51.796;10.952;2023-07-29T10:04:15;3.33;;;1.80;;
10882;SDS011;5494;51.796;10.952;2023-07-29T10:06:44;2.07;;;1.67;;
10882;SDS011;5494;51.796;10.952;2023-07-29T10:09:13;1.37;;;1.27;;
10882;SDS011;5494;51.796;10.952;2023-07-29T10:11:44;1.47;;;1.37;;
10882;SDS011;5494;51.796;10.952;2023-07-29T10:14:13;1.70;;;1.60;;
10882;SDS011;5494;51.796;10.952;2023-07-29T10:16:42;1.37;;;1.27;;
10882;SDS011;5494;51.796;10.952;2023-07-29T10:19:13;1.40;;;1.30;;
10882;SDS011;5494;51.796;10.952;2023-07-29T10:21:44;1.50;;;1.40;;
10882;SDS011;5494;51.796;10.952;2023-07-29T10:24:16;2.63;;;1.50;;
10882;SDS011;5494;51.796;10.952;2023-07-29T10:26:57;1.50;;;1.33;;
10882;SDS011;5494;51.796;10.952;2023-07-29T10:29:28;2.07;;;1.47;;
10882;SDS011;5494;51.796;10.952;2023-07-29T10:32:00;2.87;;;1.60;;
10882;SDS011;5494;51.796;10.952;2023-07-29T10:34:30;1.60;;;1.50;;
10882;SDS011;5494;51.796;10.952;2023-07-29T10:37:00;1.83;;;1.60;;
10882;SDS011;5494;51.796;10.952;2023-07-29T10:39:32;1.73;;;1.63;;
10882;SDS011;5494;51.796;10.952;2023-07-29T10:42:08;2.17;;;1.40;;
10882;SDS011;5494;51.796;10.952;2023-07-29T10:44:45;1.50;;;1.40;;
10882;SDS011;5494;51.796;10.952;2023-07-29T10:47:16;2.37;;;1.57;;
10882;SDS011;5494;51.796;10.952;2023-07-29T10:49:47;1.50;;;1.40;;
10882;SDS011;5494;51.796;10.952;2023-07-29T10:52:27;1.60;;;1.50;;
10882;SDS011;5494;51.796;10.952;2023-07-29T10:54:58;1.97;;;1.67;;
10882;SDS011;5494;51.796;10.952;2023-07-29T10:57:32;1.73;;;1.63;;
10882;SDS011;5494;51.796;10.952;2023-07-29T11:00:03;2.63;;;1.60;;
10882;SDS011;5494;51.796;10.952;2023-07-29T11:02:34;1.73;;;1.63;;
10882;SDS011;5494;51.796;10.952;2023-07-29T11:05:05;1.80;;;1.70;;
10882;SDS011;5494;51.796;10.952;2023-07-29T11:07:43;2.97;;;1.90;;
10882;SDS011;5494;51.796;10.952;2023-07-29T11:10:13;1.87;;;1.43;;
10882;SDS011;5494;51.796;10.952;2023-07-29T11:12:44;1.80;;;1.50;;
10882;SDS011;5494;51.796;10.952;2023-07-29T11:15:15;1.83;;;1.47;;
10882;SDS011;5494;51.796;10.952;2023-07-29T11:17:47;1.77;;;1.10;;
10882;SDS011;5494;51.796;10.952;2023-07-29T11:20:17;1.20;;;1.10;;
10882;SDS011;5494;51.796;10.952;2023-07-29T11:22:48;1.50;;;1.40;;
10882;SDS011;5494;51.796;10.952;2023-07-29T11:25:16;1.20;;;1.10;;
10882;SDS011;5494;51.796;10.952;2023-07-29T11:27:47;1.60;;;1.50;;
10882;SDS011;5494;51.796;10.952;2023-07-29T11:30:15;1.70;;;1.60;;
10882;SDS011;5494;51.796;10.952;2023-07-29T11:32:44;1.60;;;1.50;;
10882;SDS011;5494;51.796;10.952;2023-07-29T11:35:14;1.70;;;1.60;;
10882;SDS011;5494;51.796;10.952;2023-07-29T11:37:44;3.40;;;1.57;;
10882;SDS011;5494;51.796;10.952;2023-07-29T11:40:15;2.53;;;1.70;;
10882;SDS011;5494;51.796;10.952;2023-07-29T11:42:47;1.77;;;1.67;;
10882;SDS011;5494;51.796;10.952;2023-07-29T11:45:18;2.03;;;1.90;;
10882;SDS011;5494;51.796;10.952;2023-07-29T11:47:51;2.73;;;1.70;;
10882;SDS011;5494;51.796;10.952;2023-07-29T11:50:19;9.00;;;2.40;;
10882;SDS011;5494;51.796;10.952;2023-07-29T11:52:47;2.07;;;1.90;;
10882;SDS011;5494;51.796;10.952;2023-07-29T11:55:16;2.40;;;2.20;;
10882;SDS011;5494;51.796;10.952;2023-07-29T11:57:46;1.90;;;1.80;;
10882;SDS011;5494;51.796;10.952;2023-07-29T12:00:19;3.47;;;1.77;;
10882;SDS011;5494;51.796;10.952;2023-07-29T12:02:48;2.97;;;1.80;;
10882;SDS011;5494;51.796;10.952;2023-07-29T12:05:18;3.13;;;1.70;;
10882;SDS011;5494;51.796;10.952;2023-07-29T12:07:48;1.87;;;1.77;;
10882;SDS011;5494;51.796;10.952;2023-07-29T12:10:16;2.80;;;2.00;;
10882;SDS011;5494;51.796;10.952;2023-07-29T12:12:49;2.10;;;1.77;;
10882;SDS011;5494;51.796;10.952;2023-07-29T12:15:24;2.57;;;1.80;;
10882;SDS011;5494;51.796;10.952;2023-07-29T12:17:55;1.83;;;1.73;;
10882;SDS011;5494;51.796;10.952;2023-07-29T12:20:24;1.80;;;1.70;;
10882;SDS011;5494;51.796;10.952;2023-07-29T12:22:54;4.90;;;4.57;;
10882;SDS011;5494;51.796;10.952;2023-07-29T12:25:27;2.20;;;2.00;;
10882;SDS011;5494;51.796;10.952;2023-07-29T12:27:57;5.87;;;2.50;;
10882;SDS011;5494;51.796;10.952;2023-07-29T12:30:30;3.10;;;2.07;;
10882;SDS011;5494;51.796;10.952;2023-07-29T12:32:58;9.03;;;2.70;;
10882;SDS011;5494;51.796;10.952;2023-07-29T12:35:33;1.97;;;1.87;;
10882;SDS011;5494;51.796;10.952;2023-07-29T12:38:03;3.27;;;2.17;;
10882;SDS011;5494;51.796;10.952;2023-07-29T12:40:31;1.90;;;1.73;;
10882;SDS011;5494;51.796;10.952;2023-07-29T12:43:01;2.27;;;1.87;;
10882;SDS011;5494;51.796;10.952;2023-07-29T12:45:35;2.17;;;1.97;;
10882;SDS011;5494;51.796;10.952;2023-07-29T12:48:06;2.50;;;2.00;;
10882;SDS011;5494;51.796;10.952;2023-07-29T12:50:34;2.23;;;1.77;;
10882;SDS011;5494;51.796;10.952;2023-07-29T12:53:02;2.20;;;2.00;;
10882;SDS011;5494;51.796;10.952;2023-07-29T12:55:32;2.60;;;1.70;;
10882;SDS011;5494;51.796;10.952;2023-07-29T12:58:02;2.20;;;2.03;;
10882;SDS011;5494;51.796;10.952;2023-07-29T13:00:30;3.27;;;2.10;;
10882;SDS011;5494;51.796;10.952;2023-07-29T13:02:58;3.47;;;2.00;;
10882;SDS011;5494;51.796;10.952;2023-07-29T13:05:27;1.97;;;1.83;;
10882;SDS011;5494;51.796;10.952;2023-07-29T13:07:55;2.50;;;1.80;;
10882;SDS011;5494;51.796;10.952;2023-07-29T13:10:23;2.20;;;2.00;;
10882;SDS011;5494;51.796;10.952;2023-07-29T13:12:51;3.20;;;2.00;;
10882;SDS011;5494;51.796;10.952;2023-07-29T13:15:20;2.03;;;1.93;;
10882;SDS011;5494;51.796;10.952;2023-07-29T13:17:49;2.20;;;1.83;;
10882;SDS011;5494;51.796;10.952;2023-07-29T13:20:17;1.87;;;1.77;;
10882;SDS011;5494;51.796;10.952;2023-07-29T13:22:45;2.93;;;1.93;;
10882;SDS011;5494;51.796;10.952;2023-07-29T13:25:13;3.47;;;1.90;;
10882;SDS011;5494;51.796;10.952;2023-07-29T13:27:41;2.17;;;1.90;;
10882;SDS011;5494;51.796;10.952;2023-07-29T13:30:10;2.10;;;1.90;;
10882;SDS011;5494;51.796;10.952;2023-07-29T13:32:39;2.63;;;1.93;;
10882;SDS011;5494;51.796;10.952;2023-07-29T13:35:07;2.17;;;1.97;;
10882;SDS011;5494;51.796;10.952;2023-07-29T13:37:36;2.10;;;1.90;;
10882;SDS011;5494;51.796;10.952;2023-07-29T13:40:04;2.37;;;2.00;;
10882;SDS011;5494;51.796;10.952;2023-07-29T13:42:34;2.40;;;2.20;;
10882;SDS011;5494;51.796;10.952;2023-07-29T13:45:02;2.07;;;1.97;;
10882;SDS011;5494;51.796;10.952;2023-07-29T13:47:31;2.30;;;2.10;;
10882;SDS011;5494;51.796;10.952;2023-07-29T13:50:01;2.30;;;2.10;;
10882;SDS011;5494;51.796;10.952;2023-07-29T13:52:29;2.50;;;2.30;;
10882;SDS011;5494;51.796;10.952;2023-07-29T13:54:57;3.13;;;2.57;;
10882;SDS011;5494;51.796;10.952;2023-07-29T13:57:26;2.10;;;2.00;;
10882;SDS011;5494;51.796;10.952;2023-07-29T13:59:54;2.23;;;2.03;;
10882;SDS011;5494;51.796;10.952;2023-07-29T14:02:22;2.83;;;2.53;;
10882;SDS011;5494;51.796;10.952;2023-07-29T14:04:52;2.53;;;2.33;;
10882;SDS011;5494;51.796;10.952;2023-07-29T14:07:22;2.83;;;2.30;;
10882;SDS011;5494;51.796;10.952;2023-07-29T14:09:50;2.40;;;2.20;;
10882;SDS011;5494;51.796;10.952;2023-07-29T14:12:18;2.47;;;2.27;;
10882;SDS011;5494;51.796;10.952;2023-07-29T14:14:47;2.33;;;2.00;;
10882;SDS011;5494;51.796;10.952;2023-07-29T14:17:15;2.40;;;2.20;;
10882;SDS011;5494;51.796;10.952;2023-07-29T14:19:43;3.33;;;2.30;;
10882;SDS011;5494;51.796;10.952;2023-07-29T14:22:11;2.77;;;2.30;;
10882;SDS011;5494;51.796;10.952;2023-07-29T14:24:40;2.97;;;2.30;;
10882;SDS011;5494;51.796;10.952;2023-07-29T14:27:08;2.30;;;2.03;;
10882;SDS011;5494;51.796;10.952;2023-07-29T14:29:36;2.00;;;1.73;;
10882;SDS011;5494;51.796;10.952;2023-07-29T14:32:05;2.20;;;2.00;;
10882;SDS011;5494;51.796;10.952;2023-07-29T14:34:33;2.60;;;2.13;;
10882;SDS011;5494;51.796;10.952;2023-07-29T14:37:01;2.17;;;1.97;;
10882;SDS011;5494;51.796;10.952;2023-07-29T14:39:30;2.17;;;1.97;;
10882;SDS011;5494;51.796;10.952;2023-07-29T14:41:59;2.27;;;2.07;;
10882;SDS011;5494;51.796;10.952;2023-07-29T14:44:27;2.07;;;1.77;;
10882;SDS011;5494;51.796;10.952;2023-07-29T14:46:55;1.77;;;1.50;;
10882;SDS011;5494;51.796;10.952;2023-07-29T14:49:23;1.97;;;1.83;;
10882;SDS011;5494;51.796;10.952;2023-07-29T14:51:51;2.30;;;1.60;;
10882;SDS011;5494;51.796;10.952;2023-07-29T14:54:20;1.63;;;1.53;;
10882;SDS011;5494;51.796;10.952;2023-07-29T14:56:48;2.13;;;1.50;;
10882;SDS011;5494;51.796;10.952;2023-07-29T14:59:18;4.10;;;2.17;;
10882;SDS011;5494;51.796;10.952;2023-07-29T15:01:46;2.67;;;1.57;;